Terminal Aerodrome Forecast
Issued by NWS Pocatello, ID

Home | Current Version | Previous Version | Text Only | Print | Product List | Glossary On
Versions: 1 2 3 4 5 6 7 8 9 10 11 12 13 14
000
FTUS45 KPIH 040520
TAFBYI
TAF
KBYI 040520Z 0406/0506 13007KT P6SM FEW200
     FM041900 17011KT P6SM FEW100 BKN180=

USA.gov is the U.S. government's official web portal to all federal, state and local government web resources and services.